OOSKS EBAW-EBST
Flight info
| Callsign | OOSKS |
|---|---|
| Flight time | 0h 26m |
| Altitude | 1700 |
| Route | DCT |
| Aircraft | DA40/L-SDGRY/S |
Departure
| Time | 2026-04-30 18:33 |
|---|---|
| Airport | Antwerp International Airport (Deurne) (EBAW) |
Arrival
| Time | 2026-04-30 18:59 |
|---|---|
| Airport | Sint-Truiden / Brustem Airfield (EBST) |
| Time | Latitude | Longitude | Altitude | Speed | Heading |
|---|---|---|---|---|---|
| 2026-04-30 18:32 | 51.17577 | 4.85147 | 1710 ft | 108 kts | 113° |
| 2026-04-30 18:33 | 51.17274 | 4.86181 | 1709 ft | 98 kts | 114° |
| 2026-04-30 18:33 | 51.16733 | 4.88065 | 1708 ft | 90 kts | 114° |
| 2026-04-30 18:33 | 51.16475 | 4.88972 | 1708 ft | 89 kts | 114° |
| 2026-04-30 18:34 | 51.16219 | 4.89874 | 1709 ft | 89 kts | 113° |
| 2026-04-30 18:34 | 51.15713 | 4.91659 | 1707 ft | 88 kts | 112° |
| 2026-04-30 18:34 | 51.15464 | 4.92542 | 1703 ft | 87 kts | 113° |
| 2026-04-30 18:35 | 51.15216 | 4.93417 | 1708 ft | 87 kts | 114° |
| 2026-04-30 18:35 | 51.14968 | 4.94292 | 1710 ft | 87 kts | 114° |
| 2026-04-30 18:35 | 51.14721 | 4.95163 | 1707 ft | 86 kts | 114° |
| 2026-04-30 18:36 | 51.14340 | 4.96505 | 1706 ft | 85 kts | 114° |
| 2026-04-30 18:36 | 51.14101 | 4.97346 | 1708 ft | 84 kts | 114° |
| 2026-04-30 18:36 | 51.13617 | 4.99051 | 1710 ft | 84 kts | 114° |
| 2026-04-30 18:37 | 51.13378 | 4.99896 | 1706 ft | 83 kts | 113° |
| 2026-04-30 18:37 | 51.13142 | 5.00731 | 1701 ft | 82 kts | 113° |
| 2026-04-30 18:37 | 51.12907 | 5.01562 | 1706 ft | 82 kts | 113° |
| 2026-04-30 18:37 | 51.12671 | 5.02393 | 1703 ft | 82 kts | 114° |
| 2026-04-30 18:38 | 51.12438 | 5.03208 | 1701 ft | 80 kts | 114° |
| 2026-04-30 18:38 | 51.12211 | 5.04007 | 1704 ft | 77 kts | 114° |
| 2026-04-30 18:38 | 51.12000 | 5.04751 | 1701 ft | 71 kts | 113° |
| 2026-04-30 18:38 | 51.11804 | 5.05444 | 1698 ft | 68 kts | 111° |
| 2026-04-30 18:39 | 51.11610 | 5.06132 | 1703 ft | 69 kts | 111° |
| 2026-04-30 18:39 | 51.11412 | 5.06828 | 1704 ft | 69 kts | 111° |
| 2026-04-30 18:39 | 51.11214 | 5.07522 | 1698 ft | 69 kts | 111° |
| 2026-04-30 18:39 | 51.11016 | 5.08219 | 1706 ft | 70 kts | 111° |
| 2026-04-30 18:40 | 51.10811 | 5.08934 | 1708 ft | 72 kts | 112° |
| 2026-04-30 18:40 | 51.10601 | 5.09667 | 1713 ft | 73 kts | 112° |
| 2026-04-30 18:40 | 51.10390 | 5.10407 | 1713 ft | 73 kts | 112° |
| 2026-04-30 18:40 | 51.10180 | 5.11145 | 1710 ft | 74 kts | 112° |
| 2026-04-30 18:41 | 51.09969 | 5.11885 | 1710 ft | 73 kts | 112° |
| 2026-04-30 18:41 | 51.09763 | 5.12609 | 1708 ft | 73 kts | 112° |
| 2026-04-30 18:41 | 51.09479 | 5.13275 | 1705 ft | 74 kts | 127° |
| 2026-04-30 18:41 | 51.09051 | 5.13763 | 1708 ft | 78 kts | 143° |
| 2026-04-30 18:42 | 51.08504 | 5.13990 | 1710 ft | 85 kts | 158° |
| 2026-04-30 18:42 | 51.07322 | 5.14205 | 1706 ft | 86 kts | 159° |
| 2026-04-30 18:42 | 51.06725 | 5.14315 | 1705 ft | 86 kts | 159° |
| 2026-04-30 18:45 | 51.01257 | 5.15324 | 1704 ft | 82 kts | 159° |
| 2026-04-30 18:45 | 51.00695 | 5.15429 | 1706 ft | 84 kts | 160° |
| 2026-04-30 18:45 | 51.00093 | 5.15544 | 1708 ft | 90 kts | 161° |
| 2026-04-30 18:46 | 50.99451 | 5.15661 | 1712 ft | 95 kts | 162° |
| 2026-04-30 18:46 | 50.98790 | 5.15780 | 1714 ft | 97 kts | 162° |
| 2026-04-30 18:46 | 50.98113 | 5.15899 | 1714 ft | 98 kts | 162° |
| 2026-04-30 18:46 | 50.97427 | 5.16024 | 1715 ft | 100 kts | 161° |
| 2026-04-30 18:47 | 50.96725 | 5.16154 | 1712 ft | 103 kts | 162° |
| 2026-04-30 18:47 | 50.96012 | 5.16284 | 1713 ft | 104 kts | 162° |
| 2026-04-30 18:47 | 50.95293 | 5.16417 | 1713 ft | 104 kts | 162° |
| 2026-04-30 18:47 | 50.94574 | 5.16549 | 1710 ft | 104 kts | 162° |
| 2026-04-30 18:48 | 50.93849 | 5.16680 | 1710 ft | 105 kts | 162° |
| 2026-04-30 18:48 | 50.93161 | 5.16949 | 1707 ft | 99 kts | 144° |
| 2026-04-30 18:48 | 50.92553 | 5.17449 | 1706 ft | 99 kts | 142° |
| 2026-04-30 18:48 | 50.92006 | 5.18068 | 1700 ft | 96 kts | 133° |
| 2026-04-30 18:49 | 50.91504 | 5.18776 | 1702 ft | 98 kts | 133° |
| 2026-04-30 18:49 | 50.90987 | 5.19525 | 1701 ft | 102 kts | 133° |
| 2026-04-30 18:49 | 50.90459 | 5.20289 | 1701 ft | 102 kts | 132° |
| 2026-04-30 18:49 | 50.89935 | 5.21055 | 1700 ft | 103 kts | 133° |
| 2026-04-30 18:50 | 50.89407 | 5.21825 | 1696 ft | 103 kts | 132° |
| 2026-04-30 18:50 | 50.88881 | 5.22593 | 1695 ft | 103 kts | 132° |
| 2026-04-30 18:50 | 50.88358 | 5.23353 | 1695 ft | 102 kts | 132° |
| 2026-04-30 18:50 | 50.87839 | 5.24103 | 1696 ft | 100 kts | 132° |
| 2026-04-30 18:51 | 50.87316 | 5.24860 | 1700 ft | 103 kts | 133° |
| 2026-04-30 18:51 | 50.86792 | 5.25625 | 1703 ft | 102 kts | 133° |
| 2026-04-30 18:51 | 50.86270 | 5.26384 | 1700 ft | 102 kts | 133° |
| 2026-04-30 18:51 | 50.85756 | 5.27133 | 1703 ft | 102 kts | 133° |
| 2026-04-30 18:52 | 50.85234 | 5.27889 | 1701 ft | 102 kts | 133° |
| 2026-04-30 18:52 | 50.84711 | 5.28650 | 1698 ft | 102 kts | 133° |
| 2026-04-30 18:52 | 50.84186 | 5.29415 | 1699 ft | 103 kts | 133° |
| 2026-04-30 18:52 | 50.83661 | 5.30177 | 1696 ft | 103 kts | 133° |
| 2026-04-30 18:53 | 50.83133 | 5.30937 | 1697 ft | 102 kts | 132° |
| 2026-04-30 18:53 | 50.82602 | 5.31694 | 1698 ft | 103 kts | 133° |
| 2026-04-30 18:53 | 50.82067 | 5.32452 | 1697 ft | 103 kts | 133° |
| 2026-04-30 18:53 | 50.81537 | 5.33207 | 1697 ft | 102 kts | 132° |
| 2026-04-30 18:54 | 50.80923 | 5.33788 | 1689 ft | 111 kts | 162° |
| 2026-04-30 18:54 | 50.80135 | 5.33473 | 1689 ft | 128 kts | 204° |
| 2026-04-30 18:54 | 50.79613 | 5.32250 | 1687 ft | 145 kts | 249° |
| 2026-04-30 18:54 | 50.79450 | 5.30680 | 1700 ft | 145 kts | 257° |
| 2026-04-30 18:55 | 50.79345 | 5.29096 | 1691 ft | 143 kts | 259° |
| 2026-04-30 18:55 | 50.79039 | 5.26089 | 1620 ft | 139 kts | 243° |
| 2026-04-30 18:55 | 50.78638 | 5.24756 | 1487 ft | 134 kts | 234° |
| 2026-04-30 18:56 | 50.77799 | 5.22137 | 1350 ft | 129 kts | 238° |
| 2026-04-30 18:56 | 50.77428 | 5.20899 | 1367 ft | 120 kts | 238° |
| 2026-04-30 18:56 | 50.77096 | 5.19780 | 1432 ft | 109 kts | 237° |
| 2026-04-30 18:57 | 50.76486 | 5.17628 | 1376 ft | 106 kts | 257° |
| 2026-04-30 18:57 | 50.76742 | 5.16534 | 1193 ft | 110 kts | 326° |
| 2026-04-30 18:57 | 50.77388 | 5.16087 | 998 ft | 92 kts | 13° |
| 2026-04-30 18:58 | 50.78067 | 5.17213 | 653 ft | 65 kts | 73° |
| 2026-04-30 18:58 | 50.78284 | 5.17838 | 522 ft | 63 kts | 65° |
| 2026-04-30 18:58 | 50.78511 | 5.18438 | 432 ft | 65 kts | 63° |
| 2026-04-30 18:59 | 50.78945 | 5.19589 | 243 ft | 45 kts | 65° |
| 2026-04-30 19:00 | 50.79447 | 5.20855 | 504 ft | 60 kts | 66° |
| 2026-04-30 19:00 | 50.79691 | 5.21427 | 731 ft | 68 kts | 64° |
| 2026-04-30 19:00 | 50.79990 | 5.22779 | 1136 ft | 75 kts | 127° |
| 2026-04-30 19:01 | 50.79029 | 5.23744 | 1449 ft | 89 kts | 140° |
| 2026-04-30 19:01 | 50.78472 | 5.24265 | 1476 ft | 94 kts | 143° |
| 2026-04-30 19:02 | 50.77371 | 5.22664 | 1473 ft | 137 kts | 240° |
| 2026-04-30 19:02 | 50.76621 | 5.19886 | 1370 ft | 134 kts | 243° |
| 2026-04-30 19:03 | 50.76250 | 5.17394 | 1341 ft | 104 kts | 297° |
| 2026-04-30 19:03 | 50.77520 | 5.16385 | 833 ft | 95 kts | 20° |
| 2026-04-30 19:04 | 50.78189 | 5.17579 | 518 ft | 65 kts | 66° |
| 2026-04-30 19:04 | 50.78646 | 5.18800 | 339 ft | 65 kts | 63° |
| 2026-04-30 19:05 | 50.79020 | 5.19795 | 236 ft | 27 kts | 57° |
| 2026-04-30 19:05 | 50.79116 | 5.20040 | 233 ft | 9 kts | 59° |
| 2026-04-30 19:06 | 50.79221 | 5.20323 | 230 ft | 22 kts | 56° |
| 2026-04-30 19:06 | 50.79304 | 5.20526 | 226 ft | 17 kts | 56° |
| 2026-04-30 19:06 | 50.79405 | 5.20526 | 224 ft | 2 kts | 356° |
| 2026-04-30 19:07 | 50.79438 | 5.20554 | 223 ft | 5 kts | 232° |
| 2026-04-30 19:07 | 50.79427 | 5.20526 | 224 ft | 0 kts | 240° |